sensor_id;sensor_type;location;lat;lon;timestamp;P1;durP1;ratioP1;P2;durP2;ratioP2
17528;SDS011;8882;53.192;8.184;2022-11-15T05:32:58;13.20;;;7.00;;
17528;SDS011;8882;53.192;8.184;2022-11-15T05:35:29;13.00;;;6.83;;
17528;SDS011;8882;53.192;8.184;2022-11-15T05:37:58;11.57;;;6.57;;
17528;SDS011;8882;53.192;8.184;2022-11-15T05:40:24;8.70;;;5.77;;
17528;SDS011;8882;53.192;8.184;2022-11-15T05:42:50;13.27;;;7.03;;
17528;SDS011;8882;53.192;8.184;2022-11-15T05:45:15;14.73;;;7.63;;
17528;SDS011;8882;53.192;8.184;2022-11-15T05:47:41;12.77;;;7.27;;
17528;SDS011;8882;53.192;8.184;2022-11-15T05:50:07;11.13;;;6.77;;
17528;SDS011;8882;53.192;8.184;2022-11-15T05:52:37;12.67;;;6.67;;
17528;SDS011;8882;53.192;8.184;2022-11-15T05:55:03;12.37;;;7.17;;
17528;SDS011;8882;53.192;8.184;2022-11-15T05:57:33;10.50;;;6.30;;
17528;SDS011;8882;53.192;8.184;2022-11-15T05:59:58;11.10;;;6.90;;
17528;SDS011;8882;53.192;8.184;2022-11-15T06:02:24;12.83;;;6.60;;
17528;SDS011;8882;53.192;8.184;2022-11-15T06:04:50;10.93;;;6.43;;
17528;SDS011;8882;53.192;8.184;2022-11-15T06:07:15;10.07;;;6.43;;
17528;SDS011;8882;53.192;8.184;2022-11-15T06:09:41;13.00;;;6.57;;
17528;SDS011;8882;53.192;8.184;2022-11-15T06:12:06;10.17;;;6.57;;
17528;SDS011;8882;53.192;8.184;2022-11-15T06:14:32;11.20;;;5.70;;
17528;SDS011;8882;53.192;8.184;2022-11-15T06:16:57;12.20;;;6.47;;
17528;SDS011;8882;53.192;8.184;2022-11-15T06:19:23;12.30;;;5.77;;
17528;SDS011;8882;53.192;8.184;2022-11-15T06:21:48;10.07;;;6.23;;
17528;SDS011;8882;53.192;8.184;2022-11-15T06:24:14;10.17;;;6.73;;
17528;SDS011;8882;53.192;8.184;2022-11-15T06:26:39;13.63;;;6.73;;
17528;SDS011;8882;53.192;8.184;2022-11-15T06:29:05;7.83;;;5.90;;
17528;SDS011;8882;53.192;8.184;2022-11-15T06:31:30;12.70;;;6.63;;
17528;SDS011;8882;53.192;8.184;2022-11-15T06:33:56;11.73;;;6.13;;
17528;SDS011;8882;53.192;8.184;2022-11-15T06:36:21;12.10;;;6.53;;
17528;SDS011;8882;53.192;8.184;2022-11-15T06:38:47;11.90;;;6.23;;
17528;SDS011;8882;53.192;8.184;2022-11-15T06:41:13;11.67;;;5.97;;
17528;SDS011;8882;53.192;8.184;2022-11-15T06:43:39;9.87;;;6.30;;
17528;SDS011;8882;53.192;8.184;2022-11-15T06:46:06;11.67;;;6.50;;
17528;SDS011;8882;53.192;8.184;2022-11-15T06:48:32;9.13;;;5.87;;
17528;SDS011;8882;53.192;8.184;2022-11-15T06:50:59;14.30;;;6.23;;
17528;SDS011;8882;53.192;8.184;2022-11-15T06:53:26;12.77;;;6.67;;
17528;SDS011;8882;53.192;8.184;2022-11-15T06:55:52;9.40;;;5.40;;
17528;SDS011;8882;53.192;8.184;2022-11-15T06:58:17;11.47;;;6.57;;
17528;SDS011;8882;53.192;8.184;2022-11-15T07:00:43;13.70;;;6.17;;
17528;SDS011;8882;53.192;8.184;2022-11-15T07:03:09;10.67;;;6.13;;
17528;SDS011;8882;53.192;8.184;2022-11-15T07:05:35;12.23;;;6.13;;
17528;SDS011;8882;53.192;8.184;2022-11-15T07:08:00;14.67;;;6.43;;
17528;SDS011;8882;53.192;8.184;2022-11-15T07:10:26;11.40;;;6.80;;
17528;SDS011;8882;53.192;8.184;2022-11-15T07:12:52;9.07;;;5.43;;
17528;SDS011;8882;53.192;8.184;2022-11-15T07:15:20;15.60;;;6.23;;
17528;SDS011;8882;53.192;8.184;2022-11-15T07:17:47;8.03;;;5.33;;
17528;SDS011;8882;53.192;8.184;2022-11-15T07:20:13;15.17;;;6.13;;
17528;SDS011;8882;53.192;8.184;2022-11-15T07:22:42;8.43;;;5.80;;
17528;SDS011;8882;53.192;8.184;2022-11-15T07:25:10;8.67;;;5.10;;
17528;SDS011;8882;53.192;8.184;2022-11-15T07:27:35;10.00;;;5.97;;
17528;SDS011;8882;53.192;8.184;2022-11-15T07:30:01;11.37;;;4.70;;
17528;SDS011;8882;53.192;8.184;2022-11-15T07:32:27;13.30;;;5.77;;
17528;SDS011;8882;53.192;8.184;2022-11-15T07:34:53;9.87;;;5.50;;
17528;SDS011;8882;53.192;8.184;2022-11-15T07:37:19;10.00;;;5.63;;
17528;SDS011;8882;53.192;8.184;2022-11-15T07:39:44;9.50;;;5.83;;
17528;SDS011;8882;53.192;8.184;2022-11-15T07:42:10;10.40;;;5.10;;
17528;SDS011;8882;53.192;8.184;2022-11-15T07:44:54;8.90;;;5.13;;
17528;SDS011;8882;53.192;8.184;2022-11-15T07:47:19;10.57;;;6.30;;
17528;SDS011;8882;53.192;8.184;2022-11-15T07:49:45;9.03;;;5.20;;
17528;SDS011;8882;53.192;8.184;2022-11-15T07:52:11;12.17;;;6.30;;
17528;SDS011;8882;53.192;8.184;2022-11-15T07:54:37;9.83;;;5.87;;
17528;SDS011;8882;53.192;8.184;2022-11-15T07:57:03;8.03;;;5.73;;
17528;SDS011;8882;53.192;8.184;2022-11-15T07:59:28;10.30;;;5.50;;
17528;SDS011;8882;53.192;8.184;2022-11-15T08:01:54;10.17;;;5.73;;
17528;SDS011;8882;53.192;8.184;2022-11-15T08:04:19;9.40;;;5.13;;
17528;SDS011;8882;53.192;8.184;2022-11-15T08:06:45;11.67;;;5.93;;
17528;SDS011;8882;53.192;8.184;2022-11-15T08:09:11;10.80;;;5.80;;
17528;SDS011;8882;53.192;8.184;2022-11-15T08:11:36;8.70;;;5.43;;
17528;SDS011;8882;53.192;8.184;2022-11-15T08:14:02;11.00;;;5.90;;
17528;SDS011;8882;53.192;8.184;2022-11-15T08:16:27;10.20;;;5.73;;
17528;SDS011;8882;53.192;8.184;2022-11-15T08:18:53;11.47;;;6.30;;
17528;SDS011;8882;53.192;8.184;2022-11-15T08:21:19;9.40;;;5.47;;
17528;SDS011;8882;53.192;8.184;2022-11-15T08:23:46;10.37;;;5.40;;
17528;SDS011;8882;53.192;8.184;2022-11-15T08:26:11;10.90;;;6.40;;
17528;SDS011;8882;53.192;8.184;2022-11-15T08:28:37;9.83;;;6.33;;
17528;SDS011;8882;53.192;8.184;2022-11-15T08:31:03;9.67;;;5.67;;
17528;SDS011;8882;53.192;8.184;2022-11-15T08:33:29;8.83;;;5.23;;
17528;SDS011;8882;53.192;8.184;2022-11-15T08:35:56;7.90;;;5.37;;
17528;SDS011;8882;53.192;8.184;2022-11-15T08:38:22;10.80;;;5.50;;
17528;SDS011;8882;53.192;8.184;2022-11-15T08:40:48;8.27;;;5.00;;
17528;SDS011;8882;53.192;8.184;2022-11-15T08:43:15;12.43;;;6.00;;
17528;SDS011;8882;53.192;8.184;2022-11-15T08:45:41;8.03;;;4.77;;
17528;SDS011;8882;53.192;8.184;2022-11-15T08:48:06;9.27;;;5.20;;
17528;SDS011;8882;53.192;8.184;2022-11-15T08:50:32;9.83;;;5.73;;
17528;SDS011;8882;53.192;8.184;2022-11-15T08:52:57;8.10;;;5.37;;
17528;SDS011;8882;53.192;8.184;2022-11-15T08:55:29;9.20;;;5.37;;
17528;SDS011;8882;53.192;8.184;2022-11-15T08:57:56;9.33;;;5.80;;
17528;SDS011;8882;53.192;8.184;2022-11-15T09:00:22;8.67;;;4.70;;
17528;SDS011;8882;53.192;8.184;2022-11-15T09:02:48;9.10;;;5.40;;
17528;SDS011;8882;53.192;8.184;2022-11-15T09:05:14;7.27;;;5.23;;
17528;SDS011;8882;53.192;8.184;2022-11-15T09:07:43;9.70;;;5.00;;
17528;SDS011;8882;53.192;8.184;2022-11-15T09:10:09;7.17;;;5.00;;
17528;SDS011;8882;53.192;8.184;2022-11-15T09:12:34;14.47;;;6.53;;
17528;SDS011;8882;53.192;8.184;2022-11-15T09:15:00;9.70;;;5.63;;
17528;SDS011;8882;53.192;8.184;2022-11-15T09:17:25;8.73;;;5.20;;
17528;SDS011;8882;53.192;8.184;2022-11-15T09:19:51;6.93;;;4.83;;
17528;SDS011;8882;53.192;8.184;2022-11-15T09:22:16;8.43;;;5.43;;
17528;SDS011;8882;53.192;8.184;2022-11-15T09:24:42;10.90;;;6.00;;
17528;SDS011;8882;53.192;8.184;2022-11-15T09:27:08;11.57;;;6.03;;
17528;SDS011;8882;53.192;8.184;2022-11-15T09:29:33;8.93;;;5.27;;
17528;SDS011;8882;53.192;8.184;2022-11-15T09:31:59;11.27;;;5.60;;
17528;SDS011;8882;53.192;8.184;2022-11-15T09:34:24;11.63;;;5.70;;
17528;SDS011;8882;53.192;8.184;2022-11-15T09:36:50;11.13;;;6.23;;
17528;SDS011;8882;53.192;8.184;2022-11-15T09:39:15;9.43;;;6.13;;
17528;SDS011;8882;53.192;8.184;2022-11-15T09:50:11;11.50;;;6.33;;
17528;SDS011;8882;53.192;8.184;2022-11-15T09:52:41;11.33;;;6.40;;
17528;SDS011;8882;53.192;8.184;2022-11-15T09:55:09;11.03;;;5.90;;
17528;SDS011;8882;53.192;8.184;2022-11-15T09:57:41;8.90;;;6.50;;
17528;SDS011;8882;53.192;8.184;2022-11-15T10:00:50;7.03;;;5.10;;
17528;SDS011;8882;53.192;8.184;2022-11-15T10:05:59;10.23;;;5.87;;
17528;SDS011;8882;53.192;8.184;2022-11-15T10:11:00;9.73;;;6.03;;
17528;SDS011;8882;53.192;8.184;2022-11-15T10:13:30;7.53;;;5.60;;
17528;SDS011;8882;53.192;8.184;2022-11-15T10:16:12;8.83;;;5.73;;
17528;SDS011;8882;53.192;8.184;2022-11-15T10:24:23;8.87;;;6.00;;
17528;SDS011;8882;53.192;8.184;2022-11-15T10:26:53;13.00;;;6.67;;
17528;SDS011;8882;53.192;8.184;2022-11-15T10:29:20;12.20;;;7.00;;
17528;SDS011;8882;53.192;8.184;2022-11-15T10:31:46;8.93;;;6.40;;
17528;SDS011;8882;53.192;8.184;2022-11-15T10:34:13;7.37;;;5.13;;
17528;SDS011;8882;53.192;8.184;2022-11-15T10:36:46;9.57;;;5.33;;
17528;SDS011;8882;53.192;8.184;2022-11-15T10:39:23;11.03;;;5.00;;
17528;SDS011;8882;53.192;8.184;2022-11-15T10:41:49;7.77;;;4.90;;
17528;SDS011;8882;53.192;8.184;2022-11-15T10:52:35;7.33;;;4.80;;
17528;SDS011;8882;53.192;8.184;2022-11-15T10:55:30;6.07;;;4.73;;
17528;SDS011;8882;53.192;8.184;2022-11-15T10:57:54;6.73;;;4.40;;
17528;SDS011;8882;53.192;8.184;2022-11-15T11:00:29;8.00;;;5.13;;
17528;SDS011;8882;53.192;8.184;2022-11-15T11:03:01;6.50;;;5.00;;
17528;SDS011;8882;53.192;8.184;2022-11-15T11:05:45;7.00;;;4.30;;
17528;SDS011;8882;53.192;8.184;2022-11-15T11:10:39;9.20;;;5.37;;
17528;SDS011;8882;53.192;8.184;2022-11-15T11:13:25;5.43;;;4.33;;
17528;SDS011;8882;53.192;8.184;2022-11-15T11:16:38;6.33;;;4.73;;
17528;SDS011;8882;53.192;8.184;2022-11-15T11:19:10;7.63;;;4.63;;
17528;SDS011;8882;53.192;8.184;2022-11-15T11:28:04;6.43;;;4.40;;
17528;SDS011;8882;53.192;8.184;2022-11-15T11:30:38;6.80;;;4.27;;
17528;SDS011;8882;53.192;8.184;2022-11-15T11:33:13;6.03;;;4.53;;
17528;SDS011;8882;53.192;8.184;2022-11-15T11:35:47;6.23;;;4.33;;
17528;SDS011;8882;53.192;8.184;2022-11-15T11:38:34;5.67;;;4.07;;
17528;SDS011;8882;53.192;8.184;2022-11-15T11:47:23;7.90;;;4.30;;
17528;SDS011;8882;53.192;8.184;2022-11-15T11:55:34;8.07;;;3.90;;
17528;SDS011;8882;53.192;8.184;2022-11-15T12:01:16;6.30;;;3.97;;
17528;SDS011;8882;53.192;8.184;2022-11-15T12:04:09;4.17;;;3.17;;
17528;SDS011;8882;53.192;8.184;2022-11-15T12:06:53;5.43;;;3.40;;
17528;SDS011;8882;53.192;8.184;2022-11-15T12:09:41;4.30;;;2.93;;
17528;SDS011;8882;53.192;8.184;2022-11-15T12:12:38;5.23;;;3.13;;
17528;SDS011;8882;53.192;8.184;2022-11-15T12:15:11;5.03;;;2.83;;
17528;SDS011;8882;53.192;8.184;2022-11-15T12:17:40;3.87;;;2.80;;
17528;SDS011;8882;53.192;8.184;2022-11-15T12:20:17;3.57;;;3.23;;
17528;SDS011;8882;53.192;8.184;2022-11-15T12:28:43;3.87;;;2.80;;
17528;SDS011;8882;53.192;8.184;2022-11-15T12:34:04;4.37;;;3.63;;
17528;SDS011;8882;53.192;8.184;2022-11-15T12:36:45;5.03;;;2.90;;
17528;SDS011;8882;53.192;8.184;2022-11-15T12:39:12;5.03;;;3.37;;
17528;SDS011;8882;53.192;8.184;2022-11-15T12:41:40;4.20;;;2.70;;
17528;SDS011;8882;53.192;8.184;2022-11-15T12:44:56;4.47;;;3.00;;
17528;SDS011;8882;53.192;8.184;2022-11-15T12:47:00;3.40;;;2.30;;
17528;SDS011;8882;53.192;8.184;2022-11-15T12:52:03;2.90;;;2.50;;
17528;SDS011;8882;53.192;8.184;2022-11-15T13:02:35;13.57;;;7.87;;
17528;SDS011;8882;53.192;8.184;2022-11-15T13:12:52;4.80;;;2.77;;
17528;SDS011;8882;53.192;8.184;2022-11-15T13:22:43;4.47;;;2.63;;
17528;SDS011;8882;53.192;8.184;2022-11-15T13:27:44;2.47;;;2.20;;
17528;SDS011;8882;53.192;8.184;2022-11-15T13:30:22;2.43;;;2.23;;
17528;SDS011;8882;53.192;8.184;2022-11-15T13:32:52;3.60;;;2.50;;
17528;SDS011;8882;53.192;8.184;2022-11-15T13:35:23;3.20;;;2.50;;
17528;SDS011;8882;53.192;8.184;2022-11-15T13:37:51;2.53;;;2.33;;
17528;SDS011;8882;53.192;8.184;2022-11-15T13:40:29;2.53;;;2.33;;
17528;SDS011;8882;53.192;8.184;2022-11-15T13:42:59;25.20;;;15.70;;
17528;SDS011;8882;53.192;8.184;2022-11-15T13:45:38;5.73;;;4.50;;
17528;SDS011;8882;53.192;8.184;2022-11-15T13:48:04;2.50;;;2.30;;
17528;SDS011;8882;53.192;8.184;2022-11-15T13:50:32;2.60;;;2.30;;
17528;SDS011;8882;53.192;8.184;2022-11-15T13:53:00;2.63;;;1.87;;
17528;SDS011;8882;53.192;8.184;2022-11-15T13:55:28;2.03;;;1.93;;
17528;SDS011;8882;53.192;8.184;2022-11-15T13:57:58;2.30;;;2.17;;
17528;SDS011;8882;53.192;8.184;2022-11-15T14:03:12;2.10;;;1.90;;
17528;SDS011;8882;53.192;8.184;2022-11-15T14:08:29;1.83;;;1.73;;
17528;SDS011;8882;53.192;8.184;2022-11-15T14:11:07;2.27;;;1.73;;
17528;SDS011;8882;53.192;8.184;2022-11-15T14:16:36;2.30;;;1.90;;
17528;SDS011;8882;53.192;8.184;2022-11-15T14:19:03;1.70;;;1.60;;
17528;SDS011;8882;53.192;8.184;2022-11-15T14:21:31;1.93;;;1.77;;
17528;SDS011;8882;53.192;8.184;2022-11-15T14:26:43;4.57;;;1.87;;
17528;SDS011;8882;53.192;8.184;2022-11-15T14:29:24;2.27;;;1.53;;
17528;SDS011;8882;53.192;8.184;2022-11-15T14:31:51;2.17;;;1.70;;
17528;SDS011;8882;53.192;8.184;2022-11-15T14:34:18;1.90;;;1.80;;
17528;SDS011;8882;53.192;8.184;2022-11-15T14:36:46;1.90;;;1.80;;
17528;SDS011;8882;53.192;8.184;2022-11-15T14:39:11;3.23;;;1.73;;
17528;SDS011;8882;53.192;8.184;2022-11-15T14:41:37;4.20;;;1.70;;
17528;SDS011;8882;53.192;8.184;2022-11-15T14:44:05;2.33;;;2.10;;
17528;SDS011;8882;53.192;8.184;2022-11-15T14:46:31;1.73;;;1.63;;
17528;SDS011;8882;53.192;8.184;2022-11-15T14:48:57;1.63;;;1.53;;
17528;SDS011;8882;53.192;8.184;2022-11-15T14:51:23;5.30;;;1.87;;
17528;SDS011;8882;53.192;8.184;2022-11-15T14:53:49;1.83;;;1.73;;
17528;SDS011;8882;53.192;8.184;2022-11-15T14:56:14;2.00;;;1.80;;
17528;SDS011;8882;53.192;8.184;2022-11-15T14:58:41;3.77;;;2.20;;
17528;SDS011;8882;53.192;8.184;2022-11-15T15:03:42;3.23;;;2.43;;
17528;SDS011;8882;53.192;8.184;2022-11-15T15:06:09;4.43;;;2.53;;
17528;SDS011;8882;53.192;8.184;2022-11-15T15:08:34;1.83;;;1.73;;
17528;SDS011;8882;53.192;8.184;2022-11-15T15:11:00;3.10;;;2.37;;
17528;SDS011;8882;53.192;8.184;2022-11-15T15:13:25;2.53;;;2.13;;
17528;SDS011;8882;53.192;8.184;2022-11-15T15:15:53;2.53;;;2.20;;
17528;SDS011;8882;53.192;8.184;2022-11-15T15:18:19;6.10;;;2.10;;
17528;SDS011;8882;53.192;8.184;2022-11-15T15:20:45;2.47;;;1.90;;
17528;SDS011;8882;53.192;8.184;2022-11-15T15:23:19;2.20;;;2.00;;
17528;SDS011;8882;53.192;8.184;2022-11-15T15:25:46;2.30;;;2.10;;
17528;SDS011;8882;53.192;8.184;2022-11-15T15:28:13;2.47;;;1.60;;
17528;SDS011;8882;53.192;8.184;2022-11-15T15:30:39;3.13;;;1.80;;
17528;SDS011;8882;53.192;8.184;2022-11-15T15:33:05;1.83;;;1.73;;
17528;SDS011;8882;53.192;8.184;2022-11-15T15:35:31;3.27;;;1.80;;
17528;SDS011;8882;53.192;8.184;2022-11-15T15:37:59;4.10;;;2.00;;
17528;SDS011;8882;53.192;8.184;2022-11-15T15:40:25;3.77;;;1.57;;
17528;SDS011;8882;53.192;8.184;2022-11-15T15:42:52;2.47;;;1.90;;
17528;SDS011;8882;53.192;8.184;2022-11-15T15:45:18;4.13;;;1.50;;
17528;SDS011;8882;53.192;8.184;2022-11-15T15:47:44;10.00;;;1.97;;
17528;SDS011;8882;53.192;8.184;2022-11-15T15:50:23;2.57;;;1.83;;
17528;SDS011;8882;53.192;8.184;2022-11-15T15:52:52;2.20;;;1.73;;
17528;SDS011;8882;53.192;8.184;2022-11-15T15:55:22;1.97;;;1.70;;
17528;SDS011;8882;53.192;8.184;2022-11-15T15:57:48;2.20;;;1.93;;
17528;SDS011;8882;53.192;8.184;2022-11-15T16:00:14;3.17;;;1.90;;
17528;SDS011;8882;53.192;8.184;2022-11-15T16:02:41;4.50;;;1.90;;
17528;SDS011;8882;53.192;8.184;2022-11-15T16:05:07;2.70;;;1.40;;
17528;SDS011;8882;53.192;8.184;2022-11-15T16:07:33;2.07;;;1.40;;
17528;SDS011;8882;53.192;8.184;2022-11-15T16:09:59;3.63;;;1.63;;
17528;SDS011;8882;53.192;8.184;2022-11-15T16:12:24;1.77;;;1.40;;
17528;SDS011;8882;53.192;8.184;2022-11-15T16:14:58;1.53;;;1.43;;
17528;SDS011;8882;53.192;8.184;2022-11-15T16:17:25;1.90;;;1.70;;
17528;SDS011;8882;53.192;8.184;2022-11-15T16:19:53;2.20;;;1.93;;
17528;SDS011;8882;53.192;8.184;2022-11-15T16:22:19;2.13;;;1.93;;
17528;SDS011;8882;53.192;8.184;2022-11-15T16:24:44;2.37;;;1.90;;
17528;SDS011;8882;53.192;8.184;2022-11-15T16:27:12;2.63;;;1.90;;
17528;SDS011;8882;53.192;8.184;2022-11-15T16:29:40;3.10;;;2.30;;
17528;SDS011;8882;53.192;8.184;2022-11-15T16:32:05;3.80;;;2.00;;
17528;SDS011;8882;53.192;8.184;2022-11-15T16:34:31;4.67;;;2.33;;
17528;SDS011;8882;53.192;8.184;2022-11-15T16:36:56;3.53;;;2.07;;
17528;SDS011;8882;53.192;8.184;2022-11-15T16:39:22;2.27;;;1.90;;
17528;SDS011;8882;53.192;8.184;2022-11-15T16:41:47;3.73;;;2.20;;
17528;SDS011;8882;53.192;8.184;2022-11-15T16:44:13;3.60;;;2.00;;
17528;SDS011;8882;53.192;8.184;2022-11-15T16:46:40;3.27;;;2.23;;
17528;SDS011;8882;53.192;8.184;2022-11-15T16:49:13;2.20;;;1.87;;
17528;SDS011;8882;53.192;8.184;2022-11-15T18:07:20;7.00;;;3.53;;
17528;SDS011;8882;53.192;8.184;2022-11-15T18:09:46;4.37;;;2.87;;
17528;SDS011;8882;53.192;8.184;2022-11-15T18:12:11;4.57;;;2.77;;
17528;SDS011;8882;53.192;8.184;2022-11-15T18:14:37;5.50;;;2.67;;
17528;SDS011;8882;53.192;8.184;2022-11-15T18:17:03;4.27;;;2.97;;
17528;SDS011;8882;53.192;8.184;2022-11-15T18:19:28;5.57;;;3.30;;
17528;SDS011;8882;53.192;8.184;2022-11-15T18:21:53;3.80;;;3.40;;
17528;SDS011;8882;53.192;8.184;2022-11-15T18:24:27;4.73;;;3.40;;
17528;SDS011;8882;53.192;8.184;2022-11-15T18:26:54;4.67;;;2.70;;
17528;SDS011;8882;53.192;8.184;2022-11-15T18:29:20;3.80;;;3.30;;
17528;SDS011;8882;53.192;8.184;2022-11-15T18:31:46;5.80;;;3.43;;
17528;SDS011;8882;53.192;8.184;2022-11-15T18:34:14;4.53;;;3.20;;
17528;SDS011;8882;53.192;8.184;2022-11-15T18:36:39;5.67;;;3.90;;
17528;SDS011;8882;53.192;8.184;2022-11-15T18:39:05;5.47;;;3.50;;
17528;SDS011;8882;53.192;8.184;2022-11-15T18:41:31;4.47;;;2.97;;
17528;SDS011;8882;53.192;8.184;2022-11-15T18:43:58;4.03;;;3.20;;
17528;SDS011;8882;53.192;8.184;2022-11-15T18:46:26;6.27;;;3.27;;
17528;SDS011;8882;53.192;8.184;2022-11-15T18:48:53;5.93;;;3.77;;
17528;SDS011;8882;53.192;8.184;2022-11-15T18:51:20;3.97;;;3.20;;
17528;SDS011;8882;53.192;8.184;2022-11-15T18:53:47;5.97;;;3.20;;
17528;SDS011;8882;53.192;8.184;2022-11-15T18:56:14;5.87;;;3.10;;
17528;SDS011;8882;53.192;8.184;2022-11-15T18:58:42;3.80;;;2.83;;
17528;SDS011;8882;53.192;8.184;2022-11-15T19:01:10;4.37;;;3.57;;
17528;SDS011;8882;53.192;8.184;2022-11-15T19:03:38;3.63;;;3.20;;
17528;SDS011;8882;53.192;8.184;2022-11-15T19:06:10;3.70;;;3.03;;
17528;SDS011;8882;53.192;8.184;2022-11-15T19:08:37;4.47;;;2.60;;
17528;SDS011;8882;53.192;8.184;2022-11-15T19:11:04;3.23;;;2.83;;
17528;SDS011;8882;53.192;8.184;2022-11-15T19:13:35;5.17;;;3.73;;
17528;SDS011;8882;53.192;8.184;2022-11-15T19:16:01;5.70;;;3.40;;
17528;SDS011;8882;53.192;8.184;2022-11-15T19:18:28;6.40;;;3.57;;
17528;SDS011;8882;53.192;8.184;2022-11-15T19:20:54;4.43;;;2.97;;
17528;SDS011;8882;53.192;8.184;2022-11-15T19:23:21;5.23;;;3.53;;
17528;SDS011;8882;53.192;8.184;2022-11-15T19:25:56;4.10;;;2.67;;
17528;SDS011;8882;53.192;8.184;2022-11-15T19:28:23;5.33;;;3.40;;
17528;SDS011;8882;53.192;8.184;2022-11-15T19:30:49;5.70;;;3.07;;
17528;SDS011;8882;53.192;8.184;2022-11-15T19:33:15;5.57;;;3.33;;
17528;SDS011;8882;53.192;8.184;2022-11-15T19:35:40;4.67;;;3.00;;
17528;SDS011;8882;53.192;8.184;2022-11-15T19:38:06;3.53;;;3.13;;
17528;SDS011;8882;53.192;8.184;2022-11-15T19:40:32;6.37;;;3.70;;
17528;SDS011;8882;53.192;8.184;2022-11-15T19:42:58;4.40;;;3.00;;
17528;SDS011;8882;53.192;8.184;2022-11-15T19:45:23;4.30;;;3.37;;
17528;SDS011;8882;53.192;8.184;2022-11-15T19:47:49;5.23;;;3.30;;
17528;SDS011;8882;53.192;8.184;2022-11-15T19:50:15;4.63;;;3.50;;
17528;SDS011;8882;53.192;8.184;2022-11-15T19:52:41;5.60;;;3.13;;
17528;SDS011;8882;53.192;8.184;2022-11-15T19:55:07;3.80;;;2.93;;
17528;SDS011;8882;53.192;8.184;2022-11-15T19:57:32;3.93;;;3.00;;
17528;SDS011;8882;53.192;8.184;2022-11-15T19:59:58;4.80;;;3.10;;
17528;SDS011;8882;53.192;8.184;2022-11-15T20:02:23;4.33;;;3.00;;
17528;SDS011;8882;53.192;8.184;2022-11-15T20:04:49;4.20;;;3.20;;
17528;SDS011;8882;53.192;8.184;2022-11-15T20:07:14;5.13;;;3.33;;
17528;SDS011;8882;53.192;8.184;2022-11-15T20:09:40;4.63;;;3.10;;
17528;SDS011;8882;53.192;8.184;2022-11-15T20:12:05;6.67;;;2.97;;
17528;SDS011;8882;53.192;8.184;2022-11-15T20:14:31;3.20;;;2.90;;
17528;SDS011;8882;53.192;8.184;2022-11-15T20:16:56;4.73;;;2.67;;
17528;SDS011;8882;53.192;8.184;2022-11-15T20:19:22;4.37;;;3.10;;
17528;SDS011;8882;53.192;8.184;2022-11-15T20:21:47;5.97;;;3.50;;
17528;SDS011;8882;53.192;8.184;2022-11-15T20:24:13;3.43;;;2.77;;
17528;SDS011;8882;53.192;8.184;2022-11-15T20:26:38;3.87;;;2.90;;
17528;SDS011;8882;53.192;8.184;2022-11-15T20:29:04;3.40;;;2.63;;
17528;SDS011;8882;53.192;8.184;2022-11-15T20:31:31;5.03;;;2.73;;
17528;SDS011;8882;53.192;8.184;2022-11-15T20:33:57;6.23;;;3.23;;
17528;SDS011;8882;53.192;8.184;2022-11-15T20:36:23;6.03;;;3.30;;
17528;SDS011;8882;53.192;8.184;2022-11-15T20:38:48;7.43;;;3.07;;
17528;SDS011;8882;53.192;8.184;2022-11-15T20:41:14;4.90;;;3.10;;
17528;SDS011;8882;53.192;8.184;2022-11-15T20:43:40;4.63;;;3.57;;
17528;SDS011;8882;53.192;8.184;2022-11-15T20:46:07;3.67;;;3.00;;
17528;SDS011;8882;53.192;8.184;2022-11-15T20:48:33;4.77;;;3.20;;
17528;SDS011;8882;53.192;8.184;2022-11-15T20:53:34;3.63;;;2.53;;
17528;SDS011;8882;53.192;8.184;2022-11-15T20:56:04;4.43;;;3.00;;
17528;SDS011;8882;53.192;8.184;2022-11-15T20:58:32;4.63;;;3.20;;
17528;SDS011;8882;53.192;8.184;2022-11-15T21:00:59;6.43;;;3.40;;
17528;SDS011;8882;53.192;8.184;2022-11-15T21:03:24;4.53;;;3.07;;
17528;SDS011;8882;53.192;8.184;2022-11-15T21:05:51;5.03;;;2.90;;
17528;SDS011;8882;53.192;8.184;2022-11-15T21:08:17;3.60;;;2.73;;
17528;SDS011;8882;53.192;8.184;2022-11-15T21:10:42;5.27;;;3.20;;
17528;SDS011;8882;53.192;8.184;2022-11-15T21:13:27;4.53;;;3.07;;
17528;SDS011;8882;53.192;8.184;2022-11-15T21:15:55;3.07;;;2.50;;
17528;SDS011;8882;53.192;8.184;2022-11-15T21:18:21;4.80;;;2.87;;
17528;SDS011;8882;53.192;8.184;2022-11-15T21:20:47;3.00;;;2.70;;
17528;SDS011;8882;53.192;8.184;2022-11-15T21:23:13;5.30;;;3.10;;
17528;SDS011;8882;53.192;8.184;2022-11-15T21:25:38;6.53;;;3.17;;
17528;SDS011;8882;53.192;8.184;2022-11-15T21:28:04;7.43;;;2.80;;
17528;SDS011;8882;53.192;8.184;2022-11-15T21:30:29;2.90;;;2.53;;
17528;SDS011;8882;53.192;8.184;2022-11-15T21:32:55;3.77;;;2.90;;
17528;SDS011;8882;53.192;8.184;2022-11-15T21:35:20;5.10;;;2.83;;
17528;SDS011;8882;53.192;8.184;2022-11-15T21:37:46;3.20;;;2.90;;
17528;SDS011;8882;53.192;8.184;2022-11-15T21:40:12;3.23;;;2.77;;
17528;SDS011;8882;53.192;8.184;2022-11-15T21:42:37;4.17;;;2.70;;
17528;SDS011;8882;53.192;8.184;2022-11-15T21:45:03;4.97;;;2.80;;
17528;SDS011;8882;53.192;8.184;2022-11-15T21:47:29;7.50;;;3.40;;
17528;SDS011;8882;53.192;8.184;2022-11-15T21:49:55;4.07;;;3.00;;
17528;SDS011;8882;53.192;8.184;2022-11-15T21:52:20;5.00;;;3.07;;
17528;SDS011;8882;53.192;8.184;2022-11-15T21:54:46;4.23;;;2.67;;
17528;SDS011;8882;53.192;8.184;2022-11-15T21:57:12;3.67;;;2.67;;
17528;SDS011;8882;53.192;8.184;2022-11-15T21:59:37;4.80;;;3.17;;
